createdAt,value
2018-10-09T00:00:21.448Z,13.73
2018-10-09T00:02:51.494Z,13.59
2018-10-09T00:05:25.003Z,13.61
2018-10-09T00:07:55.788Z,13.57
2018-10-09T00:10:25.799Z,13.51
2018-10-09T00:12:55.918Z,13.57
2018-10-09T00:15:27.013Z,13.55
2018-10-09T00:17:56.996Z,13.52
2018-10-09T00:20:28.751Z,13.57
2018-10-09T00:23:02.127Z,13.57
2018-10-09T00:25:33.792Z,13.49
2018-10-09T00:28:03.765Z,13.56
2018-10-09T00:30:33.661Z,13.52
2018-10-09T00:33:03.552Z,13.59
2018-10-09T00:35:33.381Z,13.55
2018-10-09T00:38:03.540Z,13.51
2018-10-09T00:40:33.796Z,13.57
2018-10-09T00:43:04.820Z,13.50
2018-10-09T00:45:34.732Z,13.55
2018-10-09T00:48:05.062Z,13.49
2018-10-09T00:50:35.080Z,13.51
2018-10-09T00:53:06.992Z,13.60
2018-10-09T00:55:36.895Z,13.59
2018-10-09T00:58:07.092Z,13.54
2018-10-09T01:00:37.245Z,13.50
2018-10-09T01:03:07.196Z,13.50
2018-10-09T01:05:37.006Z,13.54
2018-10-09T01:08:06.866Z,13.44
2018-10-09T01:10:36.943Z,13.46
2018-10-09T01:13:06.929Z,13.42
2018-10-09T01:15:36.981Z,13.43
2018-10-09T01:18:07.030Z,13.39
2018-10-09T01:20:36.943Z,13.39
2018-10-09T01:23:07.431Z,13.40
2018-10-09T01:25:37.749Z,13.33
2018-10-09T01:28:07.793Z,13.36
2018-10-09T01:30:38.282Z,13.38
2018-10-09T01:33:09.192Z,13.41
2018-10-09T01:35:39.372Z,13.45
2018-10-09T01:38:10.044Z,13.47
2018-10-09T01:40:39.978Z,13.42
2018-10-09T01:43:09.720Z,13.36
2018-10-09T01:45:39.812Z,13.43
2018-10-09T01:48:09.808Z,13.35
2018-10-09T01:50:39.566Z,13.29
2018-10-09T01:53:09.527Z,13.27
2018-10-09T01:55:39.640Z,13.32
2018-10-09T01:58:09.589Z,13.28
2018-10-09T02:00:39.320Z,13.33
2018-10-09T02:03:09.788Z,13.32
2018-10-09T02:05:39.729Z,13.29
2018-10-09T02:08:09.678Z,13.29
2018-10-09T02:10:39.656Z,13.29
2018-10-09T02:13:09.602Z,13.34
2018-10-09T02:15:39.665Z,13.33
2018-10-09T02:18:09.533Z,13.35
2018-10-09T02:20:39.667Z,13.40
2018-10-09T02:23:09.635Z,13.29
2018-10-09T02:25:40.229Z,13.32
2018-10-09T02:28:10.365Z,13.24
2018-10-09T02:30:40.663Z,13.31
2018-10-09T02:33:12.775Z,13.31
2018-10-09T02:35:42.390Z,13.33
2018-10-09T02:38:12.930Z,13.36
2018-10-09T02:40:43.118Z,13.30
2018-10-09T02:43:12.940Z,13.30
2018-10-09T02:45:43.002Z,13.36
2018-10-09T02:48:13.230Z,13.35
2018-10-09T02:50:43.655Z,13.35
2018-10-09T02:53:14.709Z,13.40
2018-10-09T02:55:44.599Z,13.45
2018-10-09T02:58:15.091Z,13.43
2018-10-09T03:00:45.043Z,13.41
2018-10-09T03:03:14.993Z,13.45
2018-10-09T03:05:45.249Z,13.50
2018-10-09T03:08:15.739Z,13.54
2018-10-09T03:10:46.536Z,13.51
2018-10-09T03:13:17.834Z,13.57
2018-10-09T03:15:47.842Z,13.57
2018-10-09T03:18:18.672Z,13.69
2018-10-09T03:20:48.792Z,13.66
2018-10-09T03:23:19.007Z,13.60
2018-10-09T03:25:48.933Z,13.60
2018-10-09T03:28:19.269Z,13.58
2018-10-09T03:30:49.714Z,13.55
2018-10-09T03:33:19.810Z,13.50
2018-10-09T03:35:51.429Z,13.28
2018-10-09T03:38:29.191Z,13.20
2018-10-09T03:40:59.557Z,13.24
2018-10-09T03:43:31.104Z,13.06
2018-10-09T03:46:01.588Z,13.05
2018-10-09T03:48:31.719Z,13.05
2018-10-09T03:51:02.703Z,13.04
2018-10-09T03:53:33.116Z,13.17
2018-10-09T03:56:03.395Z,13.16
2018-10-09T03:58:34.686Z,13.15
2018-10-09T04:01:05.666Z,13.12
2018-10-09T04:03:36.195Z,12.95
2018-10-09T04:06:08.300Z,12.93
2018-10-09T04:08:39.125Z,12.92
2018-10-09T04:11:10.025Z,12.90
2018-10-09T04:13:40.178Z,12.92
2018-10-09T04:16:11.995Z,12.91
2018-10-09T04:18:44.401Z,12.89
2018-10-09T04:21:14.612Z,12.91
2018-10-09T04:23:45.446Z,12.91
2018-10-09T04:26:15.729Z,12.88
2018-10-09T04:28:45.978Z,12.94
2018-10-09T04:31:16.089Z,12.98
2018-10-09T04:33:46.487Z,12.97
2018-10-09T04:36:16.718Z,13.14
2018-10-09T04:38:46.793Z,13.17
2018-10-09T04:41:17.731Z,13.13
2018-10-09T04:43:48.785Z,13.19
2018-10-09T04:46:18.965Z,13.12
2018-10-09T04:48:49.464Z,13.17
2018-10-09T04:51:19.627Z,13.29
2018-10-09T04:53:49.684Z,13.35
2018-10-09T04:56:19.891Z,13.39
2018-10-09T04:58:50.826Z,13.43
2018-10-09T05:01:23.111Z,13.48
2018-10-09T05:03:55.325Z,13.51
2018-10-09T05:06:25.978Z,13.59
2018-10-09T05:08:56.975Z,13.72
2018-10-09T05:11:28.269Z,13.75
2018-10-09T05:13:59.673Z,13.85
2018-10-09T05:16:29.793Z,13.96
2018-10-09T05:18:59.857Z,14.06
2018-10-09T05:21:31.652Z,14.13
2018-10-09T05:24:01.950Z,14.14
2018-10-09T05:26:32.876Z,14.24
2018-10-09T05:29:03.975Z,14.25
2018-10-09T05:31:34.520Z,14.33
2018-10-09T05:34:04.986Z,14.43
2018-10-09T05:36:36.458Z,14.51
2018-10-09T05:39:08.147Z,14.67
2018-10-09T05:41:38.799Z,14.78
2018-10-09T05:44:09.732Z,14.98
2018-10-09T05:46:41.714Z,15.54
2018-10-09T05:49:12.667Z,16.49
2018-10-09T05:51:43.392Z,16.75
2018-10-09T05:54:14.681Z,16.53
2018-10-09T05:56:44.630Z,16.34
2018-10-09T05:59:20.387Z,16.64
2018-10-09T06:01:51.763Z,17.67
2018-10-09T06:04:22.730Z,17.98
2018-10-09T06:06:53.040Z,18.78
2018-10-09T06:09:23.453Z,19.24
2018-10-09T06:11:53.742Z,19.61
2018-10-09T06:14:23.897Z,19.15
2018-10-09T06:16:54.174Z,18.80
2018-10-09T06:19:24.586Z,18.31
2018-10-09T06:21:54.804Z,17.78
2018-10-09T06:24:25.035Z,17.28
2018-10-09T06:26:55.517Z,16.83
2018-10-09T06:29:26.614Z,16.46
2018-10-09T06:31:57.510Z,16.23
2018-10-09T06:34:27.907Z,15.92
2018-10-09T06:36:58.038Z,15.90
2018-10-09T06:39:28.264Z,15.82
2018-10-09T06:41:58.485Z,15.85
2018-10-09T06:44:28.849Z,15.84
2018-10-09T06:46:59.135Z,15.87
2018-10-09T06:49:29.277Z,16.03
2018-10-09T06:51:59.583Z,16.06
2018-10-09T06:54:30.260Z,16.14
2018-10-09T06:57:00.703Z,16.13
2018-10-09T06:59:33.288Z,16.11
2018-10-09T07:02:04.032Z,16.23
2018-10-09T07:04:34.694Z,16.36
2018-10-09T07:07:04.831Z,16.50
2018-10-09T07:09:34.898Z,16.55
2018-10-09T07:12:05.291Z,16.62
2018-10-09T07:14:37.072Z,16.74
2018-10-09T07:17:07.333Z,16.73
2018-10-09T07:19:37.695Z,16.77
2018-10-09T07:22:08.135Z,16.90
2018-10-09T07:24:38.485Z,16.92
2018-10-09T07:27:08.978Z,16.90
2018-10-09T07:29:39.334Z,17.05
2018-10-09T07:32:10.816Z,17.13
2018-10-09T07:34:41.040Z,17.24
2018-10-09T07:37:11.273Z,17.43
2018-10-09T07:39:41.321Z,17.56
2018-10-09T07:42:11.863Z,17.59
2018-10-09T07:44:44.156Z,17.60
2018-10-09T07:47:14.735Z,17.68
2018-10-09T07:49:45.644Z,17.73
2018-10-09T07:52:15.615Z,17.63
2018-10-09T07:54:45.404Z,17.53
2018-10-09T07:57:15.101Z,17.86
2018-10-09T07:59:44.826Z,17.88
2018-10-09T08:02:14.602Z,17.88
2018-10-09T08:04:45.355Z,17.78
2018-10-09T08:07:15.215Z,17.81
2018-10-09T08:09:45.218Z,17.64
2018-10-09T08:12:15.045Z,17.75
2018-10-09T08:14:44.775Z,17.86
2018-10-09T08:17:14.599Z,17.79
2018-10-09T08:19:45.577Z,17.85
2018-10-09T08:22:15.817Z,17.93
2018-10-09T08:24:46.511Z,17.90
2018-10-09T08:27:17.196Z,18.04
2018-10-09T08:29:46.964Z,18.08
2018-10-09T08:32:16.862Z,18.18
2018-10-09T08:34:46.823Z,18.30
2018-10-09T08:37:16.627Z,18.23
2018-10-09T08:39:46.453Z,18.22
2018-10-09T08:42:17.011Z,18.35
2018-10-09T08:44:47.013Z,18.29
2018-10-09T08:47:16.703Z,18.32
2018-10-09T08:49:46.552Z,18.53
2018-10-09T08:52:16.345Z,18.55
2018-10-09T08:54:46.058Z,18.55
2018-10-09T08:57:16.461Z,18.58
2018-10-09T08:59:50.090Z,18.60
2018-10-09T09:02:19.996Z,18.54
2018-10-09T09:04:49.743Z,18.59
2018-10-09T09:07:19.507Z,18.67
2018-10-09T09:09:49.252Z,18.71
2018-10-09T09:12:19.021Z,18.62
2018-10-09T09:14:49.592Z,18.71
2018-10-09T09:17:19.361Z,18.84
2018-10-09T09:19:49.044Z,18.71
2018-10-09T09:22:18.932Z,18.83
2018-10-09T09:24:49.376Z,18.84
2018-10-09T09:27:19.286Z,18.92
2018-10-09T09:29:49.631Z,18.88
2018-10-09T09:32:19.533Z,18.82
2018-10-09T09:34:50.720Z,18.97
2018-10-09T09:37:20.856Z,18.90
2018-10-09T09:39:50.741Z,18.97
2018-10-09T09:42:20.757Z,18.91
2018-10-09T09:44:50.477Z,18.86
2018-10-09T09:47:20.320Z,18.93
2018-10-09T09:49:51.394Z,19.06
2018-10-09T09:52:21.537Z,19.06
2018-10-09T09:54:52.241Z,19.12
2018-10-09T09:57:23.670Z,19.04
2018-10-09T09:59:53.706Z,19.16
2018-10-09T10:02:23.804Z,19.12
2018-10-09T10:04:54.274Z,19.16
2018-10-09T10:07:24.813Z,19.29
2018-10-09T10:09:55.105Z,19.18
2018-10-09T10:12:25.800Z,18.94
2018-10-09T10:14:57.774Z,19.36
2018-10-09T10:17:27.574Z,19.32
2018-10-09T10:19:57.244Z,19.52
2018-10-09T10:22:27.539Z,19.49
2018-10-09T10:24:57.328Z,19.39
2018-10-09T10:27:27.093Z,19.38
2018-10-09T10:29:57.139Z,19.38
2018-10-09T10:32:27.023Z,19.59
2018-10-09T10:34:57.464Z,19.55
2018-10-09T10:37:27.577Z,19.51
2018-10-09T10:39:57.454Z,19.56
2018-10-09T10:42:27.156Z,19.64
2018-10-09T10:44:56.919Z,19.52
2018-10-09T10:47:26.763Z,19.46
2018-10-09T10:49:58.053Z,19.56
2018-10-09T10:52:28.477Z,19.54
2018-10-09T10:54:59.743Z,19.54
2018-10-09T10:57:29.908Z,19.39
2018-10-09T11:00:00.111Z,19.35
2018-10-09T11:02:30.257Z,19.48
2018-10-09T11:05:00.501Z,19.47
2018-10-09T11:07:31.172Z,19.51
2018-10-09T11:10:01.525Z,19.56
2018-10-09T11:12:32.172Z,19.50
2018-10-09T11:15:02.732Z,19.32
2018-10-09T11:17:33.550Z,19.26
2018-10-09T11:20:04.645Z,19.38
2018-10-09T11:22:36.592Z,19.51
2018-10-09T11:25:07.635Z,19.44
2018-10-09T11:27:37.614Z,19.45
2018-10-09T11:30:07.944Z,19.48
2018-10-09T11:32:38.640Z,19.49
2018-10-09T11:35:08.735Z,19.64
2018-10-09T11:37:38.494Z,19.68
2018-10-09T11:40:08.280Z,19.73
2018-10-09T11:42:38.040Z,19.68
2018-10-09T11:45:07.969Z,19.68
2018-10-09T11:47:37.934Z,19.73
2018-10-09T11:50:09.083Z,19.65
2018-10-09T11:52:38.834Z,19.60
2018-10-09T11:55:08.993Z,19.59
2018-10-09T11:57:40.918Z,19.62
2018-10-09T12:00:10.866Z,19.59
2018-10-09T12:02:41.166Z,19.54
2018-10-09T12:05:10.919Z,19.54
2018-10-09T12:07:41.263Z,19.51
2018-10-09T12:10:11.036Z,19.36
2018-10-09T12:12:41.088Z,19.29
2018-10-09T12:15:10.915Z,19.50
2018-10-09T12:17:40.599Z,19.49
2018-10-09T12:20:10.536Z,19.43
2018-10-09T12:22:40.307Z,19.52
2018-10-09T12:25:11.798Z,19.44
2018-10-09T12:27:41.663Z,19.41
2018-10-09T12:30:11.451Z,19.38
2018-10-09T12:32:41.574Z,19.44
2018-10-09T12:35:12.571Z,19.44
2018-10-09T12:37:42.410Z,19.48
2018-10-09T12:40:12.848Z,19.40
2018-10-09T12:42:43.128Z,19.47
2018-10-09T12:45:12.780Z,19.27
2018-10-09T12:47:42.536Z,19.30
2018-10-09T12:50:15.701Z,19.24
2018-10-09T12:52:45.753Z,19.26
2018-10-09T12:55:16.898Z,19.22
2018-10-09T12:57:47.397Z,19.10
2018-10-09T13:00:19.527Z,19.16
2018-10-09T13:02:50.794Z,19.19
2018-10-09T13:05:21.723Z,19.28
2018-10-09T13:07:52.047Z,19.32
2018-10-09T13:10:22.345Z,19.27
2018-10-09T13:12:54.055Z,19.27
2018-10-09T13:15:24.245Z,19.22
2018-10-09T13:17:55.233Z,19.21
2018-10-09T13:20:27.186Z,19.10
2018-10-09T13:22:58.986Z,19.20
2018-10-09T13:25:30.176Z,19.21
2018-10-09T13:27:59.955Z,19.04
2018-10-09T13:30:29.770Z,19.11
2018-10-09T13:32:59.639Z,19.07
2018-10-09T13:35:29.539Z,18.93
2018-10-09T13:37:59.381Z,18.96
2018-10-09T13:40:29.175Z,18.86
2018-10-09T13:42:59.196Z,18.89
2018-10-09T13:45:30.010Z,18.91
2018-10-09T13:48:06.422Z,18.90
2018-10-09T13:50:39.073Z,18.87
2018-10-09T13:53:09.184Z,18.88
2018-10-09T13:55:41.193Z,18.92
2018-10-09T13:58:11.765Z,18.90
2018-10-09T14:00:42.001Z,18.94
2018-10-09T14:03:12.788Z,18.98
2018-10-09T14:05:43.292Z,19.03
2018-10-09T14:08:13.558Z,19.07
2018-10-09T14:10:44.006Z,19.10
2018-10-09T14:13:13.957Z,19.12
2018-10-09T14:15:44.045Z,19.14
2018-10-09T14:18:14.757Z,18.95
2018-10-09T14:20:45.044Z,18.88
2018-10-09T14:23:14.795Z,18.89
2018-10-09T14:25:45.047Z,18.89
2018-10-09T14:28:14.836Z,18.82
2018-10-09T14:30:44.731Z,18.71
2018-10-09T14:33:15.400Z,18.80
2018-10-09T14:35:45.436Z,18.82
2018-10-09T14:38:15.612Z,18.71
2018-10-09T14:40:46.802Z,18.69
2018-10-09T14:43:16.551Z,18.65
2018-10-09T14:45:46.801Z,18.64
2018-10-09T14:48:17.021Z,18.51
2018-10-09T14:50:49.045Z,18.38
2018-10-09T14:53:19.345Z,18.38
2018-10-09T14:55:49.393Z,18.33
2018-10-09T14:58:20.651Z,18.31
2018-10-09T15:00:50.716Z,18.19
2018-10-09T15:03:20.974Z,18.11
2018-10-09T15:05:51.464Z,18.03
2018-10-09T15:08:21.850Z,18.03
2018-10-09T15:10:51.809Z,17.95
2018-10-09T15:13:21.490Z,17.89
2018-10-09T15:15:51.728Z,17.79
2018-10-09T15:18:21.482Z,17.70
2018-10-09T15:20:52.111Z,17.64
2018-10-09T15:23:22.283Z,17.52
2018-10-09T15:25:52.518Z,17.48
2018-10-09T15:28:22.193Z,17.34
2018-10-09T15:30:52.002Z,17.25
2018-10-09T15:33:21.773Z,17.24
2018-10-09T15:35:51.824Z,17.19
2018-10-09T15:38:22.568Z,17.13
2018-10-09T15:40:52.408Z,17.08
2018-10-09T15:43:23.541Z,16.96
2018-10-09T15:45:53.387Z,16.89
2018-10-09T15:48:24.356Z,16.90
2018-10-09T15:50:54.331Z,16.84
2018-10-09T15:53:24.113Z,16.75
2018-10-09T15:55:53.828Z,16.62
2018-10-09T15:58:23.773Z,16.56
2018-10-09T16:00:53.602Z,16.53
2018-10-09T16:03:23.431Z,16.53
2018-10-09T16:05:54.473Z,16.48
2018-10-09T16:08:24.351Z,16.36
2018-10-09T16:10:54.335Z,16.27
2018-10-09T16:13:24.108Z,16.27
2018-10-09T16:15:53.888Z,16.18
2018-10-09T16:18:24.703Z,16.19
2018-10-09T16:20:56.812Z,16.06
2018-10-09T16:23:27.982Z,16.00
2018-10-09T16:25:59.731Z,16.01
2018-10-09T16:28:29.814Z,15.90
2018-10-09T16:31:00.749Z,15.94
2018-10-09T16:33:30.485Z,15.89
2018-10-09T16:36:00.612Z,15.83
2018-10-09T16:38:33.614Z,15.77
2018-10-09T16:41:04.675Z,15.74
2018-10-09T16:43:34.628Z,15.70
2018-10-09T16:46:04.913Z,15.70
2018-10-09T16:48:36.102Z,15.60
2018-10-09T16:51:07.475Z,15.32
2018-10-09T16:53:37.863Z,15.21
2018-10-09T16:56:08.388Z,15.07
2018-10-09T16:58:40.768Z,15.09
2018-10-09T17:01:11.097Z,15.06
2018-10-09T17:03:41.373Z,15.04
2018-10-09T17:06:11.746Z,15.01
2018-10-09T17:08:47.576Z,15.08
2018-10-09T17:11:19.371Z,14.98
2018-10-09T17:13:49.751Z,15.00
2018-10-09T17:16:19.856Z,15.00
2018-10-09T17:18:49.610Z,14.94
2018-10-09T17:21:21.047Z,14.99
2018-10-09T17:23:56.246Z,14.91
2018-10-09T17:26:27.705Z,14.90
2018-10-09T17:28:58.358Z,14.96
2018-10-09T17:31:28.243Z,14.96
2018-10-09T17:33:58.681Z,14.90
2018-10-09T17:36:30.865Z,14.86
2018-10-09T17:39:00.936Z,14.88
2018-10-09T17:41:31.897Z,14.94
2018-10-09T17:44:01.986Z,14.91
2018-10-09T17:46:32.196Z,14.81
2018-10-09T17:49:02.360Z,14.77
2018-10-09T17:51:32.090Z,14.73
2018-10-09T17:54:02.561Z,14.70
2018-10-09T17:56:33.631Z,14.66
2018-10-09T17:59:03.812Z,14.62
2018-10-09T18:01:33.655Z,14.64
2018-10-09T18:04:04.282Z,14.65
2018-10-09T18:06:34.185Z,14.68
2018-10-09T18:09:05.507Z,14.71
2018-10-09T18:11:35.420Z,14.72
2018-10-09T18:14:05.990Z,14.76
2018-10-09T18:16:35.757Z,14.76
2018-10-09T18:19:07.400Z,14.80
2018-10-09T18:21:37.707Z,14.82
2018-10-09T18:24:11.526Z,14.78
2018-10-09T18:26:42.802Z,14.78
2018-10-09T18:29:13.666Z,14.65
2018-10-09T18:31:45.066Z,14.72
2018-10-09T18:34:17.001Z,14.67
2018-10-09T18:36:48.230Z,14.75
2018-10-09T18:39:18.574Z,14.81
2018-10-09T18:41:49.493Z,14.81
2018-10-09T18:44:21.530Z,14.78
2018-10-09T18:46:51.313Z,14.76
2018-10-09T18:49:21.845Z,14.78
2018-10-09T18:51:51.738Z,14.79
2018-10-09T18:54:21.669Z,14.71
2018-10-09T18:56:51.463Z,14.67
2018-10-09T18:59:21.940Z,14.68
2018-10-09T19:01:51.654Z,14.67
2018-10-09T19:04:21.387Z,14.66
2018-10-09T19:06:51.188Z,14.69
2018-10-09T19:09:20.958Z,14.64
2018-10-09T19:11:50.727Z,14.59
2018-10-09T19:14:20.573Z,14.60
2018-10-09T19:16:50.463Z,14.55
2018-10-09T19:19:20.963Z,14.57
2018-10-09T19:21:51.514Z,14.60
2018-10-09T19:24:31.382Z,14.60
2018-10-09T19:27:01.609Z,14.57
2018-10-09T19:29:31.517Z,14.60
2018-10-09T19:32:01.195Z,14.54
2018-10-09T19:34:34.935Z,14.61
2018-10-09T19:37:06.087Z,14.54
2018-10-09T19:39:37.651Z,14.54
2018-10-09T19:42:08.363Z,14.46
2018-10-09T19:44:38.217Z,14.46
2018-10-09T19:47:08.081Z,14.45
2018-10-09T19:49:37.845Z,14.40
2018-10-09T19:52:10.987Z,14.51
2018-10-09T19:54:40.790Z,14.44
2018-10-09T19:57:11.658Z,14.44
2018-10-09T19:59:41.691Z,14.41
2018-10-09T20:02:12.694Z,14.41
2018-10-09T20:04:43.651Z,14.39
2018-10-09T20:07:15.949Z,14.50
2018-10-09T20:09:46.106Z,14.55
2018-10-09T20:12:15.891Z,14.51
2018-10-09T20:14:46.901Z,14.49
2018-10-09T20:17:17.589Z,14.49
2018-10-09T20:19:47.648Z,14.45
2018-10-09T20:22:17.725Z,14.55
2018-10-09T20:24:47.464Z,14.55
2018-10-09T20:27:17.490Z,14.61
2018-10-09T20:29:47.866Z,14.56
2018-10-09T20:32:18.098Z,14.66
2018-10-09T20:34:48.774Z,14.69
2018-10-09T20:37:18.909Z,13.89
2018-10-09T20:39:50.070Z,14.78
2018-10-09T20:42:20.598Z,14.73
2018-10-09T20:44:51.004Z,14.77
2018-10-09T20:47:26.041Z,14.72
2018-10-09T20:49:57.138Z,14.72
2018-10-09T20:52:28.253Z,14.72
2018-10-09T20:54:58.002Z,14.67
2018-10-09T20:57:28.197Z,14.68
2018-10-09T20:59:58.183Z,14.67
2018-10-09T21:02:28.364Z,14.64
2018-10-09T21:04:58.948Z,14.66
2018-10-09T21:07:30.749Z,14.64
2018-10-09T21:10:01.247Z,14.60
2018-10-09T21:12:32.313Z,14.60
2018-10-09T21:15:04.642Z,14.57
2018-10-09T21:17:35.352Z,14.57
2018-10-09T21:20:05.635Z,14.50
2018-10-09T21:22:35.588Z,14.51
2018-10-09T21:25:08.946Z,14.45
2018-10-09T21:27:38.776Z,14.42
2018-10-09T21:30:08.888Z,14.38
2018-10-09T21:32:39.362Z,14.35
2018-10-09T21:35:09.356Z,14.34
2018-10-09T21:37:39.195Z,14.32
2018-10-09T21:40:09.100Z,14.32
2018-10-09T21:42:38.896Z,14.33
2018-10-09T21:45:10.014Z,14.31
2018-10-09T21:47:43.823Z,14.29
2018-10-09T21:50:13.727Z,14.22
2018-10-09T21:52:43.400Z,14.23
2018-10-09T21:55:13.526Z,14.19
2018-10-09T21:57:43.560Z,14.21
2018-10-09T22:00:14.362Z,14.22
2018-10-09T22:02:44.280Z,14.25
2018-10-09T22:05:14.440Z,14.27
2018-10-09T22:07:44.182Z,14.23
2018-10-09T22:10:13.851Z,14.27
2018-10-09T22:12:43.608Z,14.22
2018-10-09T22:15:13.498Z,14.22
2018-10-09T22:17:43.199Z,14.22
2018-10-09T22:20:12.974Z,14.21
2018-10-09T22:22:42.809Z,14.23
2018-10-09T22:25:12.658Z,14.22
2018-10-09T22:27:42.936Z,14.21
2018-10-09T22:30:12.816Z,14.19
2018-10-09T22:32:42.822Z,14.18
2018-10-09T22:35:12.765Z,14.14
2018-10-09T22:37:42.569Z,14.11
2018-10-09T22:40:12.446Z,14.13
2018-10-09T22:42:42.277Z,14.17
2018-10-09T22:45:12.126Z,14.15
2018-10-09T22:47:42.219Z,14.20
2018-10-09T22:50:12.495Z,14.17
2018-10-09T22:52:44.035Z,14.12
2018-10-09T22:55:14.016Z,14.17
2018-10-09T22:57:43.831Z,14.17
2018-10-09T23:00:14.072Z,14.19
2018-10-09T23:02:46.140Z,14.14
2018-10-09T23:05:17.191Z,14.14
2018-10-09T23:07:47.292Z,14.16
2018-10-09T23:10:17.496Z,14.19
2018-10-09T23:12:47.699Z,14.21
2018-10-09T23:15:18.835Z,14.22
2018-10-09T23:17:49.212Z,14.14
2018-10-09T23:20:20.729Z,14.27
2018-10-09T23:22:50.724Z,14.27
2018-10-09T23:25:21.159Z,14.26
2018-10-09T23:27:51.714Z,14.31
2018-10-09T23:30:22.090Z,14.32
2018-10-09T23:32:52.705Z,14.27
2018-10-09T23:35:24.460Z,14.30
2018-10-09T23:37:54.700Z,14.22
2018-10-09T23:40:24.883Z,14.21
2018-10-09T23:42:55.119Z,14.22
2018-10-09T23:45:25.727Z,14.21
2018-10-09T23:48:01.903Z,14.21
2018-10-09T23:50:33.024Z,14.12
2018-10-09T23:53:03.463Z,14.14
2018-10-09T23:55:35.288Z,14.10
2018-10-09T23:58:05.558Z,14.13
